Time;durP1;ratioP1;P1;durP2;ratioP2;P2;SDS_P1;SDS_P2;PMS_P1;PMS_P2;Temp;Humidity;BMP_temperature;BMP_pressure;BME280_temperature;BME280_humidity;BME280_pressure;Samples;Min_cycle;Max_cycle;Signal;HPM_P1;HPM_P2
2021/01/24 00:00:55;;;;;;;24.10;13.80;;;;;;;1.80;81.07;99018.03;5131330;27;20539;-57
2021/01/24 00:03:22;;;;;;;26.73;13.60;;;;;;;1.87;80.71;99014.97;5137061;27;20832;-57
2021/01/24 00:05:50;;;;;;;25.10;13.50;;;;;;;1.80;81.17;99007.84;5134743;27;20480;-57
2021/01/24 00:08:16;;;;;;;92.67;36.30;;;;;;;1.70;82.57;99002.28;5136946;27;20458;-58
2021/01/24 00:10:43;;;;;;;125.43;49.80;;;;;;;1.58;83.81;99001.69;5135392;27;20491;-57
2021/01/24 00:13:10;;;;;;;75.13;30.75;;;;;;;1.60;83.43;98995.03;5136939;27;20439;-56
2021/01/24 00:15:37;;;;;;;37.60;18.20;;;;;;;1.65;82.45;99001.22;5134683;27;20261;-57
2021/01/24 00:18:04;;;;;;;77.70;31.17;;;;;;;1.65;82.37;99002.88;5136663;27;20742;-58
2021/01/24 00:20:31;;;;;;;35.43;17.77;;;;;;;1.58;82.41;98999.13;5126471;28;20238;-54
2021/01/24 00:22:58;;;;;;;24.63;13.23;;;;;;;1.65;81.65;99002.88;5136842;28;20434;-55
2021/01/24 00:25:25;;;;;;;26.63;14.23;;;;;;;1.61;81.42;99001.84;5134820;27;20230;-58
2021/01/24 00:27:52;;;;;;;24.53;13.20;;;;;;;1.64;81.61;99001.13;5136778;28;20462;-55
2021/01/24 00:30:19;;;;;;;30.73;12.80;;;;;;;1.69;81.46;99005.63;5135082;27;20504;-58
2021/01/24 00:32:47;;;;;;;26.42;14.65;;;;;;;1.53;81.98;99005.69;5136507;28;20432;-59
2021/01/24 00:35:14;;;;;;;27.53;13.57;;;;;;;1.62;81.87;99003.59;5134886;27;20317;-57
2021/01/24 00:37:41;;;;;;;30.93;14.60;;;;;;;1.60;81.96;99015.38;5136761;28;20468;-57
2021/01/24 00:40:09;;;;;;;26.77;13.20;;;;;;;1.42;82.22;99008.56;5135101;27;20519;-59
2021/01/24 00:42:36;;;;;;;29.07;14.30;;;;;;;1.48;82.46;99011.41;5118456;28;20492;-58
2021/01/24 00:45:04;;;;;;;30.80;14.50;;;;;;;1.43;82.52;99012.84;5112529;28;20749;-58
2021/01/24 00:47:31;;;;;;;29.47;14.53;;;;;;;1.56;82.18;99021.09;5114601;28;20736;-56
2021/01/24 00:50:01;;;;;;;23.50;13.47;;;;;;;1.50;82.08;99020.78;5113224;28;20528;-58
2021/01/24 00:52:28;;;;;;;29.30;14.55;;;;;;;1.52;82.16;99021.72;5114411;28;20523;-57
2021/01/24 00:54:55;;;;;;;24.53;13.23;;;;;;;1.32;82.78;99021.59;5124403;28;20291;-56
2021/01/24 00:57:22;;;;;;;27.15;13.35;;;;;;;1.29;83.05;99018.91;5135349;27;20483;-56
2021/01/24 00:59:49;;;;;;;26.13;15.00;;;;;;;1.20;83.61;99020.19;5137202;27;20580;-56
2021/01/24 01:02:15;;;;;;;27.10;14.27;;;;;;;1.18;83.84;99020.91;5139000;27;20539;-57
2021/01/24 01:04:43;;;;;;;28.92;15.05;;;;;;;1.15;83.81;99020.72;5136963;27;20757;-54
2021/01/24 01:07:11;;;;;;;31.07;14.97;;;;;;;1.15;83.81;99020.72;5139000;27;20222;-59
2021/01/24 01:09:37;;;;;;;27.27;14.70;;;;;;;1.21;83.77;99014.31;5137382;27;20488;-56
2021/01/24 01:12:05;;;;;;;29.35;13.93;;;;;;;1.23;83.47;99014.38;5138759;27;20253;-55
2021/01/24 01:14:31;;;;;;;27.33;13.93;;;;;;;1.23;83.99;99010.97;5136547;27;20242;-57
2021/01/24 01:16:58;;;;;;;27.33;14.33;;;;;;;1.24;83.73;99010.16;5138102;27;20782;-58
2021/01/24 01:19:25;;;;;;;33.07;14.10;;;;;;;1.24;84.16;99010.16;5137160;27;20770;-57
2021/01/24 01:21:51;;;;;;;23.50;13.03;;;;;;;1.36;83.69;99008.25;5138662;27;20464;-57
2021/01/24 01:24:19;;;;;;;27.13;14.90;;;;;;;1.23;84.02;99013.50;5136687;27;20548;-57
2021/01/24 01:26:45;;;;;;;30.65;14.45;;;;;;;1.20;84.28;99010.03;5138736;27;20558;-57
2021/01/24 01:29:12;;;;;;;26.77;13.87;;;;;;;1.26;84.07;99004.38;5136877;27;20317;-58
2021/01/24 01:31:39;;;;;;;32.10;13.52;;;;;;;1.45;83.40;98993.44;5138820;27;20953;-58
2021/01/24 01:34:05;;;;;;;26.90;12.73;;;;;;;1.37;83.46;98997.28;5136667;27;20524;-57
2021/01/24 01:36:33;;;;;;;26.67;13.30;;;;;;;1.24;84.37;98994.91;5138739;27;20454;-57
2021/01/24 01:39:00;;;;;;;28.60;13.77;;;;;;;1.23;84.51;99000.81;5138399;27;20920;-56
2021/01/24 01:41:29;;;;;;;27.43;13.40;;;;;;;1.36;84.18;98995.53;5136971;27;20483;-57
2021/01/24 01:43:56;;;;;;;26.87;13.70;;;;;;;1.31;84.19;99002.94;5138126;27;20433;-58
2021/01/24 01:46:26;;;;;;;23.57;13.40;;;;;;;1.26;84.28;99006.03;5137328;27;20462;-57
2021/01/24 01:48:53;;;;;;;26.50;13.20;;;;;;;1.28;84.51;99004.47;5138855;27;20458;-57
2021/01/24 01:51:19;;;;;;;25.40;13.50;;;;;;;1.28;84.32;99014.63;5137176;27;20226;-58
2021/01/24 01:53:46;;;;;;;29.53;14.10;;;;;;;1.18;84.54;99005.66;5138604;27;20234;-57
2021/01/24 01:56:13;;;;;;;23.73;13.80;;;;;;;1.23;84.58;99003.34;5136623;27;20488;-57
2021/01/24 01:58:41;;;;;;;24.53;12.80;;;;;;;1.28;84.50;99002.78;5139598;27;20525;-58
2021/01/24 02:01:13;;;;;;;23.10;12.37;;;;;;;1.23;84.46;99003.34;5137564;27;20490;-59
2021/01/24 02:03:48;;;;;;;26.27;13.80;;;;;;;1.17;84.77;99004.78;5139412;27;20465;-58
2021/01/24 02:06:19;;;;;;;28.60;13.10;;;;;;;1.18;84.88;99001.44;5137076;27;20450;-57
2021/01/24 02:08:50;;;;;;;29.03;15.70;;;;;;;1.25;84.44;99001.75;5138644;27;20463;-56
2021/01/24 02:11:21;;;;;;;27.93;13.30;;;;;;;1.13;84.92;98997.78;5119634;27;20535;-59
2021/01/24 02:13:56;;;;;;;23.17;12.35;;;;;;;1.07;85.11;99007.63;5118893;28;20541;-55
2021/01/24 02:16:22;;;;;;;28.23;14.30;;;;;;;1.24;84.77;99000.00;5116584;28;20239;-52
2021/01/24 02:18:50;;;;;;;21.57;12.73;;;;;;;1.18;84.62;99003.13;5118760;28;20203;-58
2021/01/24 02:21:26;;;;;;;29.13;14.50;;;;;;;1.24;84.57;98995.81;5117108;28;20555;-57
2021/01/24 02:23:54;;;;;;;22.70;12.57;;;;;;;1.08;85.00;98997.53;5118746;28;20809;-58
2021/01/24 02:26:27;;;;;;;26.57;14.10;;;;;;;0.99;85.61;99003.81;5116488;28;20241;-56
2021/01/24 02:29:05;;;;;;;34.10;14.20;;;;;;;1.04;85.51;99000.72;5118575;28;20457;-55
2021/01/24 02:31:33;;;;;;;31.05;13.82;;;;;;;1.05;85.20;99004.13;5116593;28;20319;-56
2021/01/24 02:34:01;;;;;;;26.40;13.32;;;;;;;0.99;85.67;99002.16;5118065;28;20555;-57
2021/01/24 02:36:28;;;;;;;30.27;14.87;;;;;;;1.02;85.46;99009.06;5118355;28;20230;-57
2021/01/24 02:38:56;;;;;;;26.13;14.07;;;;;;;1.04;85.25;99007.47;5118238;28;20427;-58
2021/01/24 02:41:23;;;;;;;25.90;14.35;;;;;;;1.00;85.27;99011.53;5115926;28;20500;-57
2021/01/24 02:43:50;;;;;;;26.50;13.70;;;;;;;0.97;85.47;99007.97;5118545;28;20199;-56
2021/01/24 02:46:17;;;;;;;29.43;14.03;;;;;;;0.92;85.43;99008.59;5116139;28;20585;-56
2021/01/24 02:48:45;;;;;;;25.17;13.83;;;;;;;0.89;85.62;99013.50;5118028;28;20463;-58
2021/01/24 02:51:13;;;;;;;23.83;13.63;;;;;;;0.90;85.78;99005.09;5116980;27;20476;-56
2021/01/24 02:53:40;;;;;;;27.13;13.43;;;;;;;0.85;85.84;99011.59;5137480;27;20205;-59
2021/01/24 02:56:07;;;;;;;26.77;13.50;;;;;;;0.97;85.65;99015.56;5136200;27;20235;-59
2021/01/24 02:58:34;;;;;;;28.85;13.60;;;;;;;0.94;85.58;99017.13;5138747;27;20747;-58
2021/01/24 03:01:01;;;;;;;30.05;14.65;;;;;;;0.87;85.90;99014.22;5136601;27;20249;-55
2021/01/24 03:03:28;;;;;;;27.67;14.33;;;;;;;0.98;85.50;99017.31;5138292;27;20202;-58
2021/01/24 03:05:56;;;;;;;104.87;43.03;;;;;;;0.94;86.64;99017.13;5130278;27;20476;-56
2021/01/24 03:08:23;;;;;;;108.82;44.88;;;;;;;0.89;87.58;99017.72;5138128;27;20949;-58
2021/01/24 03:10:50;;;;;;;70.65;31.48;;;;;;;0.92;87.30;99016.19;5131252;27;20230;-59
2021/01/24 03:13:21;;;;;;;69.03;30.97;;;;;;;0.88;87.76;99021.03;5138243;27;20222;-56
2021/01/24 03:15:48;;;;;;;29.83;15.00;;;;;;;0.74;87.02;99017.75;5135777;27;20455;-58
2021/01/24 03:18:19;;;;;;;30.05;14.43;;;;;;;0.66;86.66;99013.16;5137929;27;20293;-58
2021/01/24 03:20:48;;;;;;;51.47;25.27;;;;;;;0.85;87.83;99016.69;5130310;27;20531;-56
2021/01/24 03:23:16;;;;;;;42.53;19.52;;;;;;;0.73;87.37;99023.63;5137412;27;20571;-56
2021/01/24 03:25:43;;;;;;;33.65;17.83;;;;;;;0.72;87.06;99016.81;5135946;27;20230;-57
2021/01/24 03:28:10;;;;;;;37.42;18.75;;;;;;;0.83;87.34;99017.38;5137819;27;20313;-58
2021/01/24 03:30:37;;;;;;;37.83;17.98;;;;;;;0.79;87.34;99014.69;5136124;27;20285;-55
2021/01/24 03:33:05;;;;;;;48.47;20.13;;;;;;;0.76;87.75;99016.16;5137697;27;20290;-58
2021/01/24 03:35:32;;;;;;;39.40;17.80;;;;;;;0.78;87.30;99004.44;5135812;27;20238;-59
2021/01/24 03:37:59;;;;;;;33.38;16.35;;;;;;;0.76;87.24;99013.63;5137494;27;20294;-56
2021/01/24 03:40:26;;;;;;;27.58;14.48;;;;;;;0.62;86.87;99005.31;5135881;27;20237;-58
2021/01/24 03:42:53;;;;;;;26.60;14.13;;;;;;;0.61;87.03;99003.56;5137712;27;20604;-58
2021/01/24 03:45:19;;;;;;;31.02;16.05;;;;;;;0.69;86.61;99006.47;5135548;27;20262;-57
2021/01/24 03:47:46;;;;;;;30.33;13.07;;;;;;;0.56;87.05;99008.38;5137576;27;20220;-54
2021/01/24 03:50:13;;;;;;;28.33;13.35;;;;;;;0.60;87.07;99010.28;5135826;27;20241;-58
2021/01/24 03:52:40;;;;;;;28.65;15.35;;;;;;;0.56;86.85;99012.59;5137593;27;20209;-55
2021/01/24 03:55:07;;;;;;;25.83;14.32;;;;;;;0.60;86.86;99019.56;5136298;27;20241;-56
2021/01/24 03:57:35;;;;;;;28.15;15.05;;;;;;;0.55;86.84;99015.94;5137314;27;20225;-55
2021/01/24 04:00:04;;;;;;;27.77;14.32;;;;;;;0.50;87.23;99023.25;5135323;27;20317;-57
2021/01/24 04:02:31;;;;;;;32.38;14.98;;;;;;;0.56;86.67;99027.81;5138105;27;20655;-59
2021/01/24 04:04:58;;;;;;;26.42;14.10;;;;;;;0.47;87.01;99028.19;5135419;27;20253;-55
2021/01/24 04:07:24;;;;;;;37.60;15.63;;;;;;;0.42;87.07;99027.06;5137411;27;20306;-54
2021/01/24 04:09:51;;;;;;;23.38;13.45;;;;;;;0.39;87.45;99026.13;5135495;27;20318;-55
2021/01/24 04:12:18;;;;;;;28.40;13.70;;;;;;;0.48;87.11;99027.41;5137226;27;20286;-55
2021/01/24 04:14:45;;;;;;;30.65;14.38;;;;;;;0.44;86.86;99022.94;5135202;27;20234;-54
2021/01/24 04:17:11;;;;;;;30.02;15.25;;;;;;;0.40;86.86;99021.91;5137291;27;20222;-58
2021/01/24 04:19:38;;;;;;;26.95;14.13;;;;;;;0.33;87.15;99025.78;5135846;27;20241;-54
2021/01/24 04:22:05;;;;;;;31.73;15.30;;;;;;;0.30;87.35;99020.53;5137166;28;20286;-56
2021/01/24 04:24:31;;;;;;;28.98;13.13;;;;;;;0.39;86.84;99025.22;5135192;27;20241;-55
2021/01/24 04:26:58;;;;;;;29.50;14.18;;;;;;;0.35;86.96;99029.25;5136963;28;20225;-57
2021/01/24 04:29:25;;;;;;;30.38;15.35;;;;;;;0.57;86.29;99020.28;5135160;27;20262;-57
2021/01/24 04:31:52;;;;;;;30.75;14.95;;;;;;;0.39;86.57;99015.97;5137157;27;20226;-56
2021/01/24 04:34:19;;;;;;;23.67;13.80;;;;;;;0.42;86.45;99024.53;5139029;27;20195;-56
2021/01/24 04:36:45;;;;;;;35.75;15.05;;;;;;;0.38;86.64;99016.75;5141239;27;20214;-58
2021/01/24 04:39:12;;;;;;;32.03;14.48;;;;;;;0.35;86.83;99019.09;5139734;27;20194;-57
2021/01/24 04:41:39;;;;;;;32.08;15.30;;;;;;;0.40;86.39;99016.81;5141076;27;20230;-56
2021/01/24 04:44:06;;;;;;;33.10;15.85;;;;;;;0.36;86.64;99020.84;5140027;27;20565;-56
2021/01/24 04:46:34;;;;;;;33.53;15.10;;;;;;;0.32;86.48;99013.00;5140989;27;20222;-57
2021/01/24 04:49:02;;;;;;;34.45;15.98;;;;;;;0.34;86.54;99012.28;5141116;27;20221;-57
2021/01/24 04:51:29;;;;;;;31.48;15.38;;;;;;;0.33;86.74;99007.13;5140719;27;20716;-58
2021/01/24 04:53:55;;;;;;;28.25;14.45;;;;;;;0.26;86.97;99004.25;5140798;27;20199;-57
2021/01/24 04:56:23;;;;;;;27.98;14.65;;;;;;;0.30;86.85;99010.38;5138944;27;20238;-58
2021/01/24 04:58:50;;;;;;;33.47;14.80;;;;;;;0.28;86.56;99004.34;5141063;27;20230;-57
2021/01/24 05:01:17;;;;;;;31.90;14.57;;;;;;;0.33;86.67;98995.31;5138195;27;20234;-56
2021/01/24 05:03:44;;;;;;;33.47;15.60;;;;;;;0.22;87.00;99002.34;5140945;27;20501;-59
2021/01/24 05:06:11;;;;;;;29.63;14.88;;;;;;;0.26;87.09;99004.25;5138583;27;20265;-58
2021/01/24 05:08:43;;;;;;;30.70;15.20;;;;;;;0.16;87.11;99001.13;5140613;27;20294;-58
2021/01/24 05:11:10;;;;;;;30.48;14.90;;;;;;;0.17;87.33;98997.81;5138935;27;20726;-55
2021/01/24 05:13:37;;;;;;;28.13;15.07;;;;;;;0.13;87.29;99006.91;5140772;27;20206;-56
2021/01/24 05:16:05;;;;;;;33.45;15.30;;;;;;;0.24;87.47;99004.97;5138232;27;20237;-54
2021/01/24 05:18:32;;;;;;;32.80;16.08;;;;;;;0.21;86.96;99004.81;5140408;27;20677;-58
2021/01/24 05:20:59;;;;;;;35.10;15.18;;;;;;;0.22;87.24;99006.53;5138240;27;20647;-53
2021/01/24 05:23:27;;;;;;;28.15;14.73;;;;;;;0.25;87.14;98996.56;5140438;27;20306;-59
2021/01/24 05:25:54;;;;;;;28.58;15.27;;;;;;;0.24;86.97;98994.81;5138111;27;20666;-56
2021/01/24 05:28:23;;;;;;;35.45;17.08;;;;;;;0.18;87.24;98995.34;5140463;27;20194;-56
2021/01/24 05:30:50;;;;;;;31.40;14.60;;;;;;;0.25;86.73;99001.63;5138256;27;20328;-57
2021/01/24 05:33:17;;;;;;;36.58;16.85;;;;;;;0.19;86.72;99002.19;5140148;27;20202;-58
2021/01/24 05:35:48;;;;;;;32.83;16.38;;;;;;;0.21;86.66;99002.25;5137606;27;20635;-55
2021/01/24 05:38:29;;;;;;;28.65;15.20;;;;;;;0.30;86.35;99007.84;5140203;27;20286;-56
2021/01/24 05:40:56;;;;;;;32.72;15.73;;;;;;;0.18;86.45;99007.16;5139014;27;20231;-55
2021/01/24 05:43:27;;;;;;;32.65;15.48;;;;;;;0.04;87.08;99009.81;5139715;27;20213;-58
2021/01/24 05:45:54;;;;;;;31.13;16.52;;;;;;;0.06;87.51;99012.44;5137632;27;20237;-57
2021/01/24 05:48:20;;;;;;;38.88;15.63;;;;;;;0.11;87.36;99008.50;5139759;27;20203;-58
2021/01/24 05:50:49;;;;;;;35.88;15.48;;;;;;;0.02;87.20;99013.94;5138089;27;20310;-59
2021/01/24 05:53:16;;;;;;;33.17;15.52;;;;;;;0.06;87.08;99020.03;5139845;27;20203;-58
2021/01/24 05:55:44;;;;;;;27.65;14.55;;;;;;;0.07;87.21;99017.59;5137579;27;20240;-58
2021/01/24 05:58:16;;;;;;;34.95;15.50;;;;;;;0.00;87.28;99025.66;5139964;27;20294;-54
2021/01/24 06:00:44;;;;;;;32.72;15.32;;;;;;;0.05;87.00;99026.75;5138739;27;20246;-55
2021/01/24 06:03:11;;;;;;;31.85;14.65;;;;;;;-0.03;87.15;99025.47;5139356;27;20249;-58
2021/01/24 06:05:38;;;;;;;40.72;16.67;;;;;;;0.15;87.10;99024.75;5138338;27;20314;-57
2021/01/24 06:08:05;;;;;;;30.90;15.50;;;;;;;0.26;86.53;99023.69;5140048;27;20237;-57
2021/01/24 06:10:32;;;;;;;33.88;15.18;;;;;;;0.12;86.73;99031.38;5137936;27;20548;-57
2021/01/24 06:13:00;;;;;;;29.70;14.75;;;;;;;0.03;87.53;99033.41;5139552;27;20281;-58
2021/01/24 06:15:28;;;;;;;36.20;16.55;;;;;;;0.04;87.32;99032.63;5138010;27;20640;-56
2021/01/24 06:17:57;;;;;;;34.38;16.38;;;;;;;0.12;87.53;99030.53;5139547;27;20195;-57
2021/01/24 06:20:25;;;;;;;37.65;15.63;;;;;;;-0.01;87.90;99031.50;5138556;27;20234;-57
2021/01/24 06:22:55;;;;;;;33.63;16.05;;;;;;;0.03;87.68;99033.41;5139346;27;20202;-57
2021/01/24 06:25:24;;;;;;;39.05;17.23;;;;;;;0.16;87.59;99037.53;5136867;27;20241;-58
2021/01/24 06:27:53;;;;;;;32.47;16.08;;;;;;;0.18;87.67;99035.06;5139239;27;20207;-57
2021/01/24 06:30:24;;;;;;;34.67;16.17;;;;;;;0.20;87.24;99044.50;5137282;27;20317;-56
2021/01/24 06:32:50;;;;;;;33.03;16.60;;;;;;;0.29;86.74;99049.22;5139089;27;20199;-57
2021/01/24 06:35:20;;;;;;;32.55;16.40;;;;;;;0.31;87.10;99042.56;5136584;27;20230;-54
2021/01/24 06:37:52;;;;;;;29.27;15.68;;;;;;;0.26;86.87;99055.00;5139114;27;20219;-58
2021/01/24 06:40:27;;;;;;;35.88;16.42;;;;;;;0.31;87.04;99047.63;5137310;27;20317;-58
2021/01/24 06:42:58;;;;;;;35.42;16.58;;;;;;;0.32;86.95;99059.56;5138749;27;20237;-58
2021/01/24 06:45:42;;;;;;;34.58;16.15;;;;;;;0.33;86.71;99051.16;5137677;27;20270;-56
2021/01/24 06:48:10;;;;;;;37.15;16.30;;;;;;;0.23;87.27;99059.03;5138813;27;20205;-55
2021/01/24 06:50:40;;;;;;;31.00;15.30;;;;;;;0.29;87.12;99059.38;5136997;27;20520;-58
2021/01/24 06:53:07;;;;;;;32.08;15.88;;;;;;;0.17;87.21;99066.28;5138548;27;20199;-58
2021/01/24 06:55:37;;;;;;;34.17;16.92;;;;;;;0.05;87.82;99063.94;5136000;27;20951;-59
2021/01/24 06:58:46;;;;;;;30.42;15.90;;;;;;;0.05;88.13;99059.75;5138613;27;20209;-58
2021/01/24 07:01:27;;;;;;;31.40;16.27;;;;;;;0.20;87.73;99058.88;5055811;28;20248;-57
2021/01/24 07:04:35;;;;;;;35.15;16.17;;;;;;;0.38;87.27;99064.09;5055295;28;20646;-57
2021/01/24 07:07:35;;;;;;;34.38;16.83;;;;;;;0.28;87.09;99067.78;5067606;28;20300;-57
2021/01/24 07:10:10;;;;;;;37.92;16.30;;;;;;;0.16;87.10;99072.16;5073464;28;20694;-58
2021/01/24 07:12:46;;;;;;;34.03;16.55;;;;;;;0.09;87.28;99079.41;5125305;27;20198;-56
2021/01/24 07:15:23;;;;;;;28.92;15.65;;;;;;;0.07;87.66;99091.16;5136237;27;20237;-56
2021/01/24 07:18:01;;;;;;;35.70;16.90;;;;;;;0.16;87.33;99084.84;5137074;27;20222;-56
2021/01/24 07:20:28;;;;;;;31.63;15.52;;;;;;;0.22;87.24;99087.72;5136587;27;20587;-56
2021/01/24 07:22:54;;;;;;;31.65;15.85;;;;;;;0.15;87.18;99105.94;5138308;27;20205;-55
2021/01/24 07:25:22;;;;;;;42.05;18.20;;;;;;;0.22;87.11;99102.94;5135952;27;20269;-56
2021/01/24 07:27:52;;;;;;;35.20;16.23;;;;;;;0.09;87.52;99102.25;5137520;27;20218;-55
2021/01/24 07:30:26;;;;;;;34.53;16.20;;;;;;;-0.06;88.06;99107.31;5135857;27;20238;-59
2021/01/24 07:32:53;;;;;;;38.67;17.23;;;;;;;-0.05;88.12;99108.19;5137686;27;20206;-57
2021/01/24 07:35:21;;;;;;;33.38;15.82;;;;;;;0.06;87.96;99112.19;5135853;27;20703;-56
2021/01/24 07:37:50;;;;;;;31.42;16.02;;;;;;;0.13;87.73;99118.50;5137688;27;20314;-59
2021/01/24 07:40:16;;;;;;;31.77;16.02;;;;;;;0.08;87.89;99124.97;5136256;27;20261;-58
2021/01/24 07:42:44;;;;;;;37.83;17.33;;;;;;;0.06;87.95;99122.34;5137704;27;20514;-53
2021/01/24 07:45:11;;;;;;;38.00;16.60;;;;;;;0.10;88.10;99129.38;5135574;27;20265;-58
2021/01/24 07:47:38;;;;;;;32.85;17.13;;;;;;;0.06;88.08;99132.50;5137660;27;20495;-58
2021/01/24 07:50:06;;;;;;;30.67;16.33;;;;;;;0.20;87.90;99135.84;5135492;27;20242;-57
2021/01/24 07:52:33;;;;;;;36.05;15.98;;;;;;;0.08;87.72;99130.94;5137405;27;20593;-57
2021/01/24 07:55:00;;;;;;;39.50;16.95;;;;;;;0.08;88.00;99135.13;5135523;27;20243;-58
2021/01/24 07:57:26;;;;;;;32.15;17.38;;;;;;;0.01;88.31;99139.00;5137179;27;20644;-57
2021/01/24 07:59:54;;;;;;;34.25;17.30;;;;;;;0.06;87.91;99146.84;5135440;27;20265;-57
2021/01/24 08:02:21;;;;;;;32.13;16.25;;;;;;;0.12;87.75;99142.13;5137158;27;20667;-58
2021/01/24 08:04:47;;;;;;;38.53;16.75;;;;;;;0.17;87.36;99142.41;5135393;27;20583;-57
2021/01/24 08:07:14;;;;;;;39.55;17.00;;;;;;;0.17;87.94;99139.84;5136587;27;20310;-59
2021/01/24 08:09:42;;;;;;;39.45;17.60;;;;;;;0.25;87.40;99138.63;5135699;27;20233;-56
2021/01/24 08:12:11;;;;;;;36.28;17.17;;;;;;;0.18;87.66;99137.41;5137083;27;20641;-57
2021/01/24 08:14:38;;;;;;;34.45;17.27;;;;;;;0.25;87.73;99136.97;5135356;27;20322;-59
2021/01/24 08:17:06;;;;;;;32.35;16.55;;;;;;;0.22;87.60;99138.47;5137239;27;20244;-59
2021/01/24 08:19:33;;;;;;;36.88;18.00;;;;;;;0.29;87.78;99142.25;5135632;27;20230;-55
2021/01/24 08:22:00;;;;;;;34.55;16.75;;;;;;;0.30;87.83;99142.31;5136940;28;20210;-57
2021/01/24 08:24:27;;;;;;;46.63;20.52;;;;;;;0.36;87.69;99147.72;5135175;27;20605;-58
2021/01/24 08:26:55;;;;;;;38.08;19.02;;;;;;;0.32;87.99;99148.38;5137088;28;20249;-56
2021/01/24 08:29:23;;;;;;;37.25;17.73;;;;;;;0.16;88.28;99149.16;5135296;27;20663;-55
2021/01/24 08:31:49;;;;;;;40.13;19.80;;;;;;;0.30;88.69;99147.38;5136925;28;20298;-58
2021/01/24 08:34:16;;;;;;;37.05;18.73;;;;;;;1.03;88.78;99148.00;5134667;27;20510;-59
2021/01/24 08:36:44;;;;;;;48.13;21.35;;;;;;;0.83;87.78;99152.84;5136909;28;20253;-57
2021/01/24 08:39:11;;;;;;;35.45;17.80;;;;;;;0.49;87.07;99164.53;5135322;27;20599;-56
2021/01/24 08:41:39;;;;;;;42.55;19.13;;;;;;;0.68;87.76;99170.66;5137086;28;20231;-55
2021/01/24 08:44:10;;;;;;;39.10;17.20;;;;;;;0.71;86.79;99170.81;5135071;27;20294;-53
2021/01/24 08:46:39;;;;;;;35.67;19.35;;;;;;;0.59;86.58;99171.00;5136759;28;20583;-56
2021/01/24 08:49:08;;;;;;;42.20;20.48;;;;;;;0.73;86.93;99178.53;5135050;27;20230;-53
2021/01/24 08:51:46;;;;;;;35.10;17.75;;;;;;;0.66;86.10;99178.19;5136668;28;20660;-55
2021/01/24 08:54:23;;;;;;;35.65;17.13;;;;;;;1.25;86.33;99175.44;5135462;27;20203;-57
2021/01/24 08:56:51;;;;;;;36.42;17.60;;;;;;;0.83;85.17;99180.78;5137039;28;20226;-57
2021/01/24 08:59:20;;;;;;;36.38;18.27;;;;;;;1.21;85.78;99186.19;5134395;27;20199;-57
2021/01/24 09:01:47;;;;;;;33.95;16.58;;;;;;;1.26;84.67;99186.44;5136602;28;20588;-57
2021/01/24 09:04:25;;;;;;;36.97;17.45;;;;;;;0.96;85.10;99197.56;5134295;27;20584;-57
2021/01/24 09:07:09;;;;;;;32.80;16.85;;;;;;;1.01;85.70;99195.28;5136762;27;20225;-58
2021/01/24 09:09:37;;;;;;;33.30;17.23;;;;;;;0.92;85.33;99201.59;5135416;27;20255;-58
2021/01/24 09:12:05;;;;;;;36.20;18.50;;;;;;;0.84;85.86;99213.00;5136782;28;20286;-58
2021/01/24 09:14:33;;;;;;;35.67;17.45;;;;;;;0.97;86.10;99199.31;5134496;28;20480;-57
2021/01/24 09:17:10;;;;;;;34.92;17.52;;;;;;;0.98;85.75;99206.16;5136722;28;20534;-56
2021/01/24 09:19:38;;;;;;;34.25;17.05;;;;;;;1.05;85.97;99209.91;5137246;27;20240;-59
2021/01/24 09:22:07;;;;;;;35.92;17.85;;;;;;;1.14;86.16;99202.81;5140643;27;20554;-57
2021/01/24 09:24:34;;;;;;;38.08;16.15;;;;;;;1.16;85.13;99203.75;5137604;27;20241;-54
2021/01/24 09:27:01;;;;;;;34.97;17.27;;;;;;;1.06;85.95;99211.66;5139872;27;20230;-56
2021/01/24 09:29:27;;;;;;;38.88;18.60;;;;;;;1.14;86.51;99214.63;5138746;27;20488;-53
2021/01/24 09:31:55;;;;;;;30.53;15.57;;;;;;;1.63;85.75;99212.97;5140354;27;20476;-58
2021/01/24 09:34:22;;;;;;;37.05;17.10;;;;;;;1.63;85.20;99212.97;5138088;27;20841;-57
2021/01/24 09:36:49;;;;;;;38.80;18.43;;;;;;;1.34;85.57;99218.25;5135017;27;20227;-55
2021/01/24 09:39:16;;;;;;;32.30;17.95;;;;;;;1.31;86.43;99223.16;5138651;27;20539;-57
2021/01/24 09:41:42;;;;;;;35.07;17.40;;;;;;;1.34;85.84;99221.66;5139665;27;20199;-59
2021/01/24 09:44:09;;;;;;;35.88;16.75;;;;;;;1.39;86.06;99218.50;5138001;27;20804;-56
2021/01/24 09:46:35;;;;;;;55.65;23.85;;;;;;;1.43;85.98;99220.41;5139611;27;20524;-56
2021/01/24 09:49:05;;;;;;;43.45;20.45;;;;;;;1.44;86.72;99223.03;5138792;27;20206;-56
2021/01/24 09:51:31;;;;;;;49.40;22.77;;;;;;;1.57;86.47;99218.59;5139625;27;20233;-58
2021/01/24 09:53:58;;;;;;;34.77;17.30;;;;;;;1.59;85.35;99222.13;5139356;27;20427;-57
2021/01/24 09:56:26;;;;;;;34.05;16.50;;;;;;;1.57;85.41;99228.75;5137595;27;20486;-57
2021/01/24 09:58:53;;;;;;;40.30;18.60;;;;;;;1.78;86.10;99230.72;5139801;27;20195;-57
2021/01/24 10:01:19;;;;;;;37.20;16.17;;;;;;;1.65;85.28;99227.53;5138369;27;20567;-55
2021/01/24 10:03:46;;;;;;;34.17;15.53;;;;;;;1.55;85.93;99230.34;5139516;27;20199;-55
2021/01/24 10:06:14;;;;;;;37.50;15.13;;;;;;;1.68;86.28;99237.84;5137220;27;20563;-55
2021/01/24 10:08:41;;;;;;;28.58;14.23;;;;;;;1.78;85.47;99228.16;5139276;27;20447;-53
2021/01/24 10:11:08;;;;;;;30.38;15.55;;;;;;;1.62;86.53;99242.59;5137092;27;20245;-56
2021/01/24 10:13:35;;;;;;;33.40;15.50;;;;;;;1.58;86.41;99235.59;5139594;27;20285;-54
2021/01/24 10:16:02;;;;;;;28.50;14.93;;;;;;;1.63;86.15;99236.72;5137205;27;20462;-56
2021/01/24 10:18:29;;;;;;;26.33;14.55;;;;;;;1.77;85.94;99236.56;5139321;27;20464;-58
2021/01/24 10:20:56;;;;;;;26.95;12.40;;;;;;;1.75;85.56;99233.97;5132351;27;20241;-54
2021/01/24 10:23:25;;;;;;;27.63;12.20;;;;;;;1.55;86.15;99231.25;5138926;27;20203;-56
2021/01/24 10:25:52;;;;;;;39.03;16.73;;;;;;;1.51;86.92;99233.53;5137030;27;20468;-56
2021/01/24 10:28:20;;;;;;;21.70;11.30;;;;;;;1.61;87.39;99240.84;5138722;27;20457;-59
2021/01/24 10:30:49;;;;;;;22.50;11.97;;;;;;;1.82;86.24;99236.03;5136377;27;20503;-57
2021/01/24 10:33:15;;;;;;;22.87;11.87;;;;;;;1.64;86.67;99241.00;5138601;27;20457;-58
2021/01/24 10:35:43;;;;;;;20.80;11.27;;;;;;;1.62;86.82;99242.59;5132219;27;20484;-59
2021/01/24 10:38:09;;;;;;;28.50;13.20;;;;;;;1.53;87.17;99240.44;5138619;27;20986;-57
2021/01/24 10:40:37;;;;;;;20.65;11.15;;;;;;;1.29;87.82;99242.53;5136920;27;20511;-59
2021/01/24 10:43:04;;;;;;;19.73;11.13;;;;;;;1.33;87.87;99240.25;5138668;27;20205;-57
2021/01/24 10:45:31;;;;;;;20.47;9.60;;;;;;;1.27;88.56;99239.91;5136164;27;20777;-58
2021/01/24 10:47:58;;;;;;;17.47;9.73;;;;;;;1.29;88.10;99245.94;5138435;27;20431;-58
2021/01/24 10:50:26;;;;;;;27.53;13.20;;;;;;;1.38;88.04;99247.25;5134325;27;20899;-58
2021/01/24 10:52:53;;;;;;;20.60;11.20;;;;;;;1.52;87.73;99245.44;5138256;27;20470;-52
2021/01/24 10:55:20;;;;;;;24.80;11.95;;;;;;;1.32;88.21;99257.94;5136247;27;20449;-55
2021/01/24 10:57:48;;;;;;;19.27;10.90;;;;;;;1.26;88.70;99257.59;5138734;27;20221;-55
2021/01/24 11:00:16;;;;;;;21.80;10.70;;;;;;;1.25;89.05;99255.84;5136384;27;20443;-54
2021/01/24 11:02:42;;;;;;;21.53;11.83;;;;;;;1.35;89.05;99255.56;5138154;27;20485;-52
2021/01/24 11:05:09;;;;;;;21.13;11.37;;;;;;;1.42;88.39;99254.22;5135901;27;20458;-55
2021/01/24 11:07:36;;;;;;;23.87;13.10;;;;;;;1.40;88.29;99254.16;5137389;27;20443;-52
2021/01/24 11:10:04;;;;;;;22.60;11.40;;;;;;;1.54;87.83;99248.94;5137409;27;20445;-56
2021/01/24 11:12:30;;;;;;;18.47;10.20;;;;;;;1.43;88.26;99250.91;5130014;27;20465;-56
2021/01/24 11:14:58;;;;;;;19.60;11.03;;;;;;;1.50;88.10;99247.03;5135357;27;20468;-54
2021/01/24 11:17:26;;;;;;;20.80;11.00;;;;;;;1.48;88.37;99252.91;5137408;27;20482;-52
2021/01/24 11:19:53;;;;;;;19.67;10.40;;;;;;;1.40;88.35;99245.66;5136064;27;20475;-57
2021/01/24 11:22:26;;;;;;;19.47;10.87;;;;;;;1.33;88.94;99249.53;5135869;27;20435;-52
2021/01/24 11:24:57;;;;;;;24.70;11.80;;;;;;;1.40;89.25;99251.63;5135600;27;20563;-55
2021/01/24 11:27:24;;;;;;;18.63;10.03;;;;;;;1.45;89.07;99246.78;5137533;27;20443;-53
2021/01/24 11:30:01;;;;;;;20.93;11.07;;;;;;;1.37;89.12;99246.34;5135775;27;20904;-56